Time;durP1;ratioP1;P1;durP2;ratioP2;P2;SDS_P1;SDS_P2;PMS_P1;PMS_P2;Temp;Humidity;BMP_temperature;BMP_pressure;BME280_temperature;BME280_humidity;BME280_pressure;Samples;Min_cycle;Max_cycle;Signal;HPM_P1;HPM_P2
2021/10/03 00:00:14;;;;;;;7.67;6.53;;;16.10;99.90;;;;;;5111481;22;20477;-43
2021/10/03 00:02:43;;;;;;;13.70;8.53;;;16.10;99.90;;;;;;5103580;28;20460;-48
2021/10/03 00:05:12;;;;;;;12.53;9.00;;;16.10;99.90;;;;;;5111250;22;20534;-42
2021/10/03 00:07:40;;;;;;;10.60;8.23;;;16.10;99.90;;;;;;5102783;28;20532;-51
2021/10/03 00:10:07;;;;;;;12.50;8.03;;;16.10;99.90;;;;;;5111154;22;20493;-42
2021/10/03 00:12:34;;;;;;;10.67;7.67;;;16.00;99.90;;;;;;5103108;28;20437;-50
2021/10/03 00:15:04;;;;;;;14.07;8.60;;;16.00;99.90;;;;;;5109976;22;20480;-45
2021/10/03 00:17:31;;;;;;;8.70;7.27;;;16.00;99.90;;;;;;5102820;28;20445;-45
2021/10/03 00:20:02;;;;;;;15.10;9.00;;;16.10;99.90;;;;;;5108262;22;20471;-43
2021/10/03 00:22:29;;;;;;;12.20;7.60;;;16.10;99.90;;;;;;5082326;28;20840;-46
2021/10/03 00:24:57;;;;;;;12.60;8.33;;;16.10;99.90;;;;;;5091392;22;20468;-44
2021/10/03 00:27:24;;;;;;;14.37;7.50;;;16.10;99.90;;;;;;5101612;28;21022;-44
2021/10/03 00:29:51;;;;;;;12.33;8.60;;;16.10;99.90;;;;;;5102948;28;20437;-49
2021/10/03 00:32:18;;;;;;;13.10;8.87;;;16.10;99.90;;;;;;5126723;22;21155;-42
2021/10/03 00:34:47;;;;;;;20.60;9.30;;;16.10;99.90;;;;;;5103123;28;20485;-45
2021/10/03 00:37:16;;;;;;;13.70;7.77;;;16.10;99.90;;;;;;5110040;22;20481;-45
2021/10/03 00:39:43;;;;;;;17.47;10.83;;;16.10;99.90;;;;;;5103458;28;20434;-44
2021/10/03 00:42:14;;;;;;;15.93;8.70;;;16.10;99.90;;;;;;5110530;22;20527;-44
2021/10/03 00:44:41;;;;;;;16.07;8.97;;;16.10;99.90;;;;;;5102795;28;20442;-42
2021/10/03 00:47:10;;;;;;;19.33;9.70;;;16.10;99.90;;;;;;5085484;22;20486;-45
2021/10/03 00:49:37;;;;;;;12.23;8.73;;;16.10;99.90;;;;;;5040154;28;20460;-45
2021/10/03 00:52:08;;;;;;;11.63;8.07;;;16.10;99.90;;;;;;5069083;22;20483;-43
2021/10/03 00:54:50;;;;;;;15.07;8.80;;;16.10;99.90;;;;;;5090121;22;20502;-41
2021/10/03 00:57:17;;;;;;;10.93;8.10;;;16.10;99.90;;;;;;5107620;28;20475;-44
2021/10/03 00:59:44;;;;;;;13.40;9.03;;;16.10;99.90;;;;;;5129292;22;20461;-43
2021/10/03 01:02:11;;;;;;;21.87;9.63;;;16.00;99.90;;;;;;5105859;28;20471;-42
2021/10/03 01:04:40;;;;;;;12.20;8.23;;;16.00;99.90;;;;;;5113991;22;20486;-45
2021/10/03 01:07:06;;;;;;;11.53;7.57;;;16.10;99.90;;;;;;5072746;28;20538;-43
2021/10/03 01:09:35;;;;;;;13.73;8.37;;;16.00;99.90;;;;;;5084752;22;20478;-43
2021/10/03 01:12:06;;;;;;;11.80;8.20;;;16.00;99.90;;;;;;5112361;28;20764;-42
2021/10/03 01:14:47;;;;;;;12.67;7.30;;;16.00;99.90;;;;;;5117922;22;20472;-42
2021/10/03 01:17:14;;;;;;;14.03;8.17;;;15.90;99.90;;;;;;5115727;28;20476;-42
2021/10/03 01:19:44;;;;;;;10.83;8.07;;;15.90;99.90;;;;;;5107449;22;20491;-43
2021/10/03 01:22:12;;;;;;;13.40;9.73;;;15.90;99.90;;;;;;5086120;28;20461;-43
2021/10/03 01:27:07;;;;;;;10.90;8.10;;;15.90;99.90;;;;;;5117072;22;20579;-47
2021/10/03 01:29:34;;;;;;;11.00;7.77;;;15.80;99.90;;;;;;5115595;28;20437;-45
2021/10/03 01:32:01;;;;;;;14.27;8.73;;;15.80;99.90;;;;;;5107252;22;20546;-48
2021/10/03 01:34:28;;;;;;;12.67;7.73;;;15.90;99.90;;;;;;5118994;28;20468;-44
2021/10/03 01:36:57;;;;;;;10.60;8.13;;;15.80;99.90;;;;;;5116060;22;20485;-42
2021/10/03 01:39:25;;;;;;;11.00;7.63;;;15.80;99.90;;;;;;5103574;28;20582;-43
2021/10/03 01:41:56;;;;;;;17.77;7.90;;;15.80;99.90;;;;;;5124888;22;20481;-43
2021/10/03 01:44:23;;;;;;;12.30;7.07;;;15.90;99.90;;;;;;5112235;28;20487;-45
2021/10/03 01:46:49;;;;;;;10.10;7.80;;;15.80;99.90;;;;;;5118522;22;20485;-48
2021/10/03 01:49:16;;;;;;;11.43;9.40;;;15.80;99.90;;;;;;5103167;28;20445;-45
2021/10/03 01:51:42;;;;;;;9.10;6.70;;;15.80;99.90;;;;;;5116197;22;20493;-45
2021/10/03 01:54:11;;;;;;;11.60;7.63;;;15.80;99.90;;;;;;5098192;28;20442;-44
2021/10/03 01:56:40;;;;;;;14.60;7.13;;;15.80;99.90;;;;;;5081247;22;20494;-43
2021/10/03 01:59:14;;;;;;;12.03;8.23;;;15.80;99.90;;;;;;5086342;22;20973;-43
2021/10/03 02:04:31;;;;;;;13.50;8.20;;;15.80;99.90;;;;;;5088617;22;20474;-45
2021/10/03 02:07:00;;;;;;;11.80;7.10;;;15.80;99.90;;;;;;5093722;28;20961;-43
2021/10/03 02:09:28;;;;;;;12.50;8.03;;;15.80;99.90;;;;;;5107627;22;20478;-43
2021/10/03 02:11:58;;;;;;;10.40;7.13;;;15.80;99.90;;;;;;5100756;28;20446;-47
2021/10/03 02:14:30;;;;;;;10.07;7.27;;;15.70;99.90;;;;;;5109422;22;20837;-44
2021/10/03 02:16:58;;;;;;;9.70;7.00;;;15.70;99.90;;;;;;5102725;28;20455;-41
2021/10/03 02:19:56;;;;;;;12.70;6.73;;;15.70;99.90;;;;;;5109652;22;20542;-45
2021/10/03 02:22:32;;;;;;;8.57;6.63;;;15.70;99.90;;;;;;5100406;28;20445;-46
2021/10/03 02:24:58;;;;;;;11.50;7.87;;;15.70;99.90;;;;;;5100865;28;20496;-48
2021/10/03 02:27:28;;;;;;;13.33;7.23;;;15.70;99.90;;;;;;5100807;28;20441;-46
2021/10/03 02:29:55;;;;;;;14.40;8.27;;;15.60;99.90;;;;;;5101363;28;20461;-47
2021/10/03 02:32:22;;;;;;;10.20;7.57;;;15.70;99.90;;;;;;5100446;28;20429;-44
2021/10/03 02:34:49;;;;;;;8.53;7.10;;;15.70;99.90;;;;;;5100673;28;20836;-45
2021/10/03 02:37:15;;;;;;;11.90;7.27;;;15.70;99.90;;;;;;5100673;28;20483;-44
2021/10/03 02:39:42;;;;;;;10.50;7.77;;;15.70;99.90;;;;;;5100184;28;20907;-45
2021/10/03 02:42:09;;;;;;;9.07;7.00;;;15.70;99.90;;;;;;5100230;28;20453;-41
2021/10/03 02:44:38;;;;;;;11.67;7.13;;;15.70;99.90;;;;;;5100670;28;20509;-46
2021/10/03 02:47:11;;;;;;;11.43;6.33;;;15.70;99.90;;;;;;5101678;28;20538;-45
2021/10/03 02:49:38;;;;;;;9.67;6.70;;;15.70;99.90;;;;;;5100569;28;20441;-43
2021/10/03 02:52:05;;;;;;;9.23;7.23;;;15.70;99.90;;;;;;5099837;28;20844;-46
2021/10/03 02:54:31;;;;;;;10.07;7.33;;;15.70;99.90;;;;;;5099996;28;20445;-46
2021/10/03 02:56:58;;;;;;;8.77;6.80;;;15.70;99.90;;;;;;5100011;28;20480;-47
2021/10/03 02:59:25;;;;;;;10.83;6.83;;;15.70;99.90;;;;;;5100121;28;20496;-48
2021/10/03 03:01:53;;;;;;;8.60;6.30;;;15.60;99.90;;;;;;5099286;28;20502;-46
2021/10/03 03:04:20;;;;;;;10.80;6.90;;;15.70;99.90;;;;;;5100016;28;20470;-45
2021/10/03 03:06:46;;;;;;;12.03;6.77;;;15.60;99.90;;;;;;5099854;28;20461;-47
2021/10/03 03:09:13;;;;;;;8.73;7.10;;;15.60;99.90;;;;;;5099639;28;20506;-45
2021/10/03 03:11:40;;;;;;;10.87;6.73;;;15.60;99.90;;;;;;5099793;28;20471;-50
2021/10/03 03:14:07;;;;;;;14.10;6.97;;;15.60;99.90;;;;;;5099868;28;20489;-47
2021/10/03 03:16:33;;;;;;;9.90;6.43;;;15.50;99.90;;;;;;5099221;28;20542;-45
2021/10/03 03:19:07;;;;;;;8.60;6.10;;;15.50;99.90;;;;;;5098816;28;20511;-44
2021/10/03 03:21:34;;;;;;;7.03;5.93;;;15.50;99.90;;;;;;5099536;28;20452;-48
2021/10/03 03:24:01;;;;;;;10.00;6.67;;;15.50;99.90;;;;;;5099984;28;20532;-42
2021/10/03 03:26:27;;;;;;;9.80;7.67;;;15.60;99.90;;;;;;5100150;28;20768;-43
2021/10/03 03:28:57;;;;;;;9.13;6.67;;;15.50;99.90;;;;;;5100891;28;20489;-47
2021/10/03 03:31:23;;;;;;;8.57;6.70;;;15.50;99.90;;;;;;5100034;28;20466;-45
2021/10/03 03:33:50;;;;;;;10.70;7.00;;;15.50;99.90;;;;;;5100612;28;20441;-51
2021/10/03 03:36:18;;;;;;;7.63;6.30;;;15.50;99.90;;;;;;5099466;28;20493;-47
2021/10/03 03:38:46;;;;;;;9.40;7.10;;;15.50;99.90;;;;;;5099769;28;20502;-42
2021/10/03 03:41:13;;;;;;;9.90;6.40;;;15.50;99.90;;;;;;5099218;28;20555;-42
2021/10/03 03:43:41;;;;;;;12.20;7.10;;;15.50;99.90;;;;;;5099381;28;20433;-45
2021/10/03 03:46:08;;;;;;;9.70;6.70;;;15.50;99.90;;;;;;5098991;28;20441;-44
2021/10/03 03:48:35;;;;;;;9.00;6.53;;;15.50;99.90;;;;;;5099690;28;20479;-45
2021/10/03 03:51:03;;;;;;;11.40;7.37;;;15.50;99.90;;;;;;5100630;28;20538;-45
2021/10/03 03:53:32;;;;;;;9.43;6.27;;;15.50;99.90;;;;;;5102031;28;20497;-47
2021/10/03 03:55:59;;;;;;;8.87;7.00;;;15.50;99.90;;;;;;5101037;28;20477;-46
2021/10/03 03:58:25;;;;;;;13.67;6.73;;;15.50;99.90;;;;;;5101564;28;20488;-45
2021/10/03 04:00:52;;;;;;;7.30;5.90;;;15.50;99.90;;;;;;5100784;28;20551;-48
2021/10/03 04:03:19;;;;;;;10.80;6.50;;;15.50;99.90;;;;;;5101987;28;20446;-45
2021/10/03 04:05:45;;;;;;;11.37;7.27;;;15.50;99.90;;;;;;5102310;28;20834;-47
2021/10/03 04:08:12;;;;;;;12.40;7.27;;;15.50;99.90;;;;;;5101889;28;20458;-49
2021/10/03 04:10:40;;;;;;;7.97;5.93;;;15.40;99.90;;;;;;5101683;28;20519;-46
2021/10/03 04:13:07;;;;;;;8.23;5.90;;;15.40;99.90;;;;;;5101830;28;20445;-47
2021/10/03 04:15:33;;;;;;;7.03;5.93;;;15.40;99.90;;;;;;5101256;28;20485;-45
2021/10/03 04:18:02;;;;;;;10.20;7.63;;;15.40;99.90;;;;;;5100740;28;20445;-48
2021/10/03 04:20:28;;;;;;;7.53;5.90;;;15.40;99.90;;;;;;5100838;28;20495;-43
2021/10/03 04:22:55;;;;;;;6.33;5.67;;;15.40;99.90;;;;;;5100774;28;20756;-44
2021/10/03 04:25:22;;;;;;;15.23;7.63;;;15.40;99.90;;;;;;5101687;28;20437;-44
2021/10/03 04:27:50;;;;;;;9.80;7.10;;;15.40;99.90;;;;;;5101430;28;20430;-51
2021/10/03 04:30:16;;;;;;;21.43;7.43;;;15.40;99.90;;;;;;5100905;28;20506;-47
2021/10/03 04:32:49;;;;;;;9.70;7.27;;;15.40;99.90;;;;;;5101107;28;20445;-50
2021/10/03 04:35:17;;;;;;;8.67;6.63;;;15.40;99.90;;;;;;5101020;28;20437;-47
2021/10/03 04:37:44;;;;;;;10.00;6.37;;;15.40;99.90;;;;;;5100469;28;20489;-48
2021/10/03 04:40:11;;;;;;;8.53;6.30;;;15.40;99.90;;;;;;5100962;28;20457;-48
2021/10/03 04:42:41;;;;;;;8.03;5.97;;;15.40;99.90;;;;;;5100226;28;20499;-43
2021/10/03 04:45:10;;;;;;;8.97;6.10;;;15.40;99.90;;;;;;5101242;28;20917;-47
2021/10/03 04:47:37;;;;;;;9.40;6.40;;;15.50;99.90;;;;;;5100406;28;20441;-43
2021/10/03 04:50:04;;;;;;;11.00;6.07;;;15.40;99.90;;;;;;5101041;28;20421;-48
2021/10/03 04:52:33;;;;;;;9.83;7.00;;;15.40;99.90;;;;;;5100363;28;20445;-46
2021/10/03 04:54:59;;;;;;;10.23;7.37;;;15.40;99.90;;;;;;5101257;28;20465;-46
2021/10/03 04:57:26;;;;;;;13.90;7.60;;;15.40;99.90;;;;;;5101424;28;20492;-43
2021/10/03 04:59:53;;;;;;;10.50;7.10;;;15.40;99.90;;;;;;5101047;28;20833;-45
2021/10/03 05:02:20;;;;;;;16.47;7.20;;;15.50;99.90;;;;;;5100844;28;20962;-44
2021/10/03 05:04:47;;;;;;;11.83;7.07;;;15.40;99.90;;;;;;5101224;28;20466;-44
2021/10/03 05:07:14;;;;;;;9.13;6.03;;;15.40;99.90;;;;;;5101136;28;20805;-46
2021/10/03 05:09:40;;;;;;;8.80;6.77;;;15.50;99.90;;;;;;5104449;28;21059;-51
2021/10/03 05:12:09;;;;;;;10.47;6.00;;;15.50;99.90;;;;;;5104262;28;20470;-45
2021/10/03 05:14:35;;;;;;;10.10;7.73;;;15.50;99.90;;;;;;5104435;28;20768;-50
2021/10/03 05:17:02;;;;;;;11.03;7.43;;;15.50;99.90;;;;;;5104308;28;20481;-47
2021/10/03 05:19:30;;;;;;;12.60;7.60;;;15.50;99.90;;;;;;5104141;28;20453;-48
2021/10/03 05:21:57;;;;;;;9.73;7.00;;;15.50;99.90;;;;;;5104466;28;20792;-42
2021/10/03 05:24:23;;;;;;;14.93;7.57;;;15.50;99.90;;;;;;5104643;28;20514;-50
2021/10/03 05:26:50;;;;;;;13.90;7.87;;;15.50;99.90;;;;;;5103748;28;20461;-46
2021/10/03 05:29:17;;;;;;;9.10;7.00;;;15.50;99.90;;;;;;5104305;28;20449;-45
2021/10/03 05:31:44;;;;;;;8.33;6.63;;;15.60;99.90;;;;;;5104234;28;20446;-46
2021/10/03 05:34:11;;;;;;;7.33;6.10;;;15.60;99.90;;;;;;5103871;28;20441;-46
2021/10/03 05:36:38;;;;;;;9.77;7.50;;;15.60;99.90;;;;;;5104169;28;20481;-50
2021/10/03 05:39:05;;;;;;;9.87;6.90;;;15.60;99.90;;;;;;5104642;28;20465;-44
2021/10/03 05:41:32;;;;;;;9.17;6.80;;;15.50;99.90;;;;;;5104045;28;20935;-45
2021/10/03 05:43:58;;;;;;;10.47;7.23;;;15.60;99.90;;;;;;5104248;28;20469;-41
2021/10/03 05:46:25;;;;;;;8.97;7.13;;;15.60;99.90;;;;;;5104910;28;20502;-41
2021/10/03 05:48:52;;;;;;;15.00;7.10;;;15.70;99.90;;;;;;5104405;28;20461;-48
2021/10/03 05:51:18;;;;;;;12.97;7.30;;;15.70;99.90;;;;;;5105361;28;20445;-46
2021/10/03 05:53:47;;;;;;;7.77;6.77;;;15.70;99.90;;;;;;5104329;28;20495;-46
2021/10/03 05:56:13;;;;;;;11.30;7.17;;;15.70;99.90;;;;;;5104585;28;20469;-49
2021/10/03 05:58:40;;;;;;;11.77;8.20;;;15.70;99.90;;;;;;5103469;28;20533;-46
2021/10/03 06:01:07;;;;;;;14.17;8.07;;;15.70;99.90;;;;;;5104376;28;20533;-43
2021/10/03 06:03:33;;;;;;;12.10;7.50;;;15.80;99.90;;;;;;5104046;28;20909;-47
2021/10/03 06:06:00;;;;;;;12.07;7.80;;;15.80;99.90;;;;;;5103888;28;20456;-46
2021/10/03 06:08:27;;;;;;;13.53;8.63;;;15.80;99.90;;;;;;5104241;28;20453;-44
2021/10/03 06:10:55;;;;;;;9.47;6.80;;;15.80;99.90;;;;;;5103573;28;20799;-47
2021/10/03 06:13:21;;;;;;;9.70;6.17;;;15.80;99.90;;;;;;5103064;28;20510;-45
2021/10/03 06:15:54;;;;;;;11.03;7.13;;;15.80;99.90;;;;;;5104826;28;20426;-46
2021/10/03 06:18:21;;;;;;;11.43;7.57;;;15.80;99.90;;;;;;5104632;28;20840;-49
2021/10/03 06:20:48;;;;;;;14.90;8.57;;;15.80;99.90;;;;;;5103253;28;20468;-44
2021/10/03 06:23:15;;;;;;;10.43;7.40;;;15.80;99.90;;;;;;5103535;28;20446;-46
2021/10/03 06:25:41;;;;;;;10.13;7.53;;;15.80;99.90;;;;;;5102979;28;20552;-47
2021/10/03 06:28:09;;;;;;;13.07;7.03;;;15.80;99.90;;;;;;5103142;28;20522;-47
2021/10/03 06:30:37;;;;;;;10.20;7.10;;;15.80;99.90;;;;;;5103298;28;20449;-45
2021/10/03 06:33:04;;;;;;;10.17;7.20;;;15.90;99.90;;;;;;5102992;28;20445;-48
2021/10/03 06:35:31;;;;;;;13.63;7.90;;;15.90;99.90;;;;;;5102828;28;20812;-45
2021/10/03 06:37:58;;;;;;;9.40;7.77;;;15.90;99.90;;;;;;5102120;28;20476;-47
2021/10/03 06:40:33;;;;;;;12.17;8.90;;;15.90;99.90;;;;;;5108636;22;20579;-43
2021/10/03 06:43:00;;;;;;;10.93;9.00;;;16.00;99.90;;;;;;5073002;28;20456;-46
2021/10/03 06:45:31;;;;;;;9.90;7.90;;;16.10;99.90;;;;;;5142431;22;20993;-48
2021/10/03 06:47:58;;;;;;;10.30;7.10;;;16.10;99.90;;;;;;5089082;28;20850;-49
2021/10/03 06:50:28;;;;;;;13.40;7.67;;;16.20;99.90;;;;;;5099841;22;20604;-47
2021/10/03 06:52:58;;;;;;;15.00;9.43;;;16.20;99.90;;;;;;5088428;28;20478;-47
2021/10/03 06:55:25;;;;;;;13.20;7.90;;;16.30;99.90;;;;;;5089606;22;20543;-46
2021/10/03 06:57:51;;;;;;;10.77;7.43;;;16.30;99.90;;;;;;5086845;28;20561;-50
2021/10/03 07:00:22;;;;;;;11.53;7.40;;;16.40;99.90;;;;;;5119379;22;20462;-51
2021/10/03 07:02:51;;;;;;;11.93;7.77;;;16.40;99.90;;;;;;5115155;28;20943;-49
2021/10/03 07:05:18;;;;;;;10.70;9.07;;;16.40;99.90;;;;;;5107001;28;20472;-50
2021/10/03 07:07:44;;;;;;;12.53;10.20;;;16.40;99.90;;;;;;5117646;28;20436;-47
2021/10/03 07:10:11;;;;;;;9.00;7.00;;;16.40;99.90;;;;;;5106707;28;20468;-46
2021/10/03 07:12:48;;;;;;;11.63;7.93;;;16.50;99.90;;;;;;5103676;22;20500;-47
2021/10/03 07:15:14;;;;;;;10.57;7.10;;;16.50;99.90;;;;;;5085621;28;20455;-51
2021/10/03 07:17:41;;;;;;;9.83;7.00;;;16.50;99.90;;;;;;5069948;22;20487;-47
2021/10/03 07:20:10;;;;;;;9.20;7.30;;;16.60;99.90;;;;;;5059967;28;20524;-50
2021/10/03 07:22:42;;;;;;;13.47;9.13;;;16.60;99.90;;;;;;5098341;22;20489;-50
2021/10/03 07:25:18;;;;;;;10.70;7.80;;;16.60;99.90;;;;;;5103366;28;20510;-44
2021/10/03 07:27:44;;;;;;;14.50;7.30;;;16.50;99.90;;;;;;5079543;22;20525;-46
2021/10/03 07:30:11;;;;;;;12.40;7.23;;;16.60;99.90;;;;;;5060675;28;20963;-50
2021/10/03 07:32:38;;;;;;;17.20;7.53;;;16.60;99.90;;;;;;5093246;22;20573;-49
2021/10/03 07:35:06;;;;;;;10.37;8.10;;;16.50;99.90;;;;;;5101357;28;20477;-49
2021/10/03 07:37:36;;;;;;;10.73;6.80;;;16.50;99.90;;;;;;5125374;22;20576;-47
2021/10/03 07:40:07;;;;;;;10.90;6.70;;;16.50;99.90;;;;;;5101552;28;20493;-49
2021/10/03 07:42:34;;;;;;;13.13;6.97;;;16.50;99.90;;;;;;5108319;22;20481;-47
2021/10/03 07:45:00;;;;;;;11.70;6.80;;;16.50;99.90;;;;;;5100722;28;20465;-49
2021/10/03 07:47:27;;;;;;;14.10;8.67;;;16.60;99.90;;;;;;5118833;22;20490;-50
2021/10/03 07:49:54;;;;;;;11.33;7.97;;;16.70;99.90;;;;;;5081246;28;20527;-46
2021/10/03 07:52:23;;;;;;;11.23;8.10;;;16.70;99.90;;;;;;5108133;22;20847;-46
2021/10/03 07:54:52;;;;;;;8.73;6.47;;;16.70;99.90;;;;;;5100394;28;20461;-47
2021/10/03 07:57:19;;;;;;;11.03;7.13;;;16.70;99.90;;;;;;5110430;22;20575;-47
2021/10/03 07:59:49;;;;;;;9.63;7.20;;;16.80;99.90;;;;;;5100517;28;20538;-50
2021/10/03 08:04:58;;;;;;;9.00;8.00;;;16.90;99.90;;;;;;5108107;22;20962;-46
2021/10/03 08:07:25;;;;;;;9.80;7.50;;;17.00;99.90;;;;;;5100782;28;20817;-47
2021/10/03 08:09:59;;;;;;;11.63;7.47;;;17.00;99.90;;;;;;5108929;22;20518;-44
2021/10/03 08:12:26;;;;;;;13.23;8.40;;;17.00;99.90;;;;;;5100863;28;20429;-47
2021/10/03 08:14:52;;;;;;;11.90;8.53;;;17.00;99.90;;;;;;5107815;22;20496;-43
2021/10/03 08:17:19;;;;;;;14.63;7.27;;;17.10;99.90;;;;;;5100932;28;20609;-51
2021/10/03 08:19:46;;;;;;;9.47;7.60;;;17.00;99.90;;;;;;5101241;28;20473;-49
2021/10/03 08:22:12;;;;;;;10.47;7.03;;;17.10;99.90;;;;;;5101229;28;20460;-56
2021/10/03 08:24:39;;;;;;;8.17;5.73;;;17.10;99.90;;;;;;5099954;28;20457;-47
2021/10/03 08:27:07;;;;;;;9.30;6.73;;;17.10;99.90;;;;;;5100640;28;20438;-47
2021/10/03 08:29:34;;;;;;;7.87;6.10;;;17.10;99.90;;;;;;5100156;28;20984;-49
2021/10/03 08:32:01;;;;;;;13.30;7.77;;;17.10;99.90;;;;;;5100717;28;20518;-50
2021/10/03 08:34:28;;;;;;;10.90;7.40;;;17.20;99.90;;;;;;5100062;28;20540;-51
2021/10/03 08:36:57;;;;;;;10.90;7.83;;;17.30;99.90;;;;;;5099844;28;20482;-46
2021/10/03 08:39:24;;;;;;;10.60;7.23;;;17.30;99.90;;;;;;5099844;28;20460;-47
2021/10/03 08:41:51;;;;;;;13.37;7.37;;;17.30;99.90;;;;;;5099330;28;20437;-50
2021/10/03 08:44:20;;;;;;;9.10;6.80;;;17.30;99.90;;;;;;5103645;28;20449;-48
2021/10/03 08:46:54;;;;;;;7.20;6.50;;;17.30;99.90;;;;;;5103810;28;20817;-44
2021/10/03 08:49:23;;;;;;;15.93;9.33;;;17.40;99.90;;;;;;5103676;28;20457;-47
2021/10/03 08:51:51;;;;;;;12.10;7.87;;;17.50;99.90;;;;;;5103175;28;20437;-49
2021/10/03 08:54:18;;;;;;;11.43;7.90;;;17.50;99.90;;;;;;5103643;28;20441;-43
2021/10/03 08:56:46;;;;;;;10.33;7.97;;;17.60;99.90;;;;;;5103347;28;20447;-47
2021/10/03 08:59:15;;;;;;;10.67;7.70;;;17.60;99.90;;;;;;5102931;28;20453;-49
2021/10/03 09:01:53;;;;;;;12.73;8.57;;;17.70;99.90;;;;;;5103473;28;20475;-47
2021/10/03 09:04:27;;;;;;;10.67;6.80;;;17.90;99.90;;;;;;5103573;28;20429;-45
2021/10/03 09:07:07;;;;;;;9.23;6.80;;;18.10;99.90;;;;;;5103492;28;20425;-50
2021/10/03 09:09:56;;;;;;;11.13;7.77;;;18.20;99.90;;;;;;5102628;28;20426;-48
2021/10/03 09:12:31;;;;;;;11.50;7.23;;;18.20;99.90;;;;;;5102618;28;20488;-46
2021/10/03 09:14:59;;;;;;;11.17;8.23;;;18.30;99.90;;;;;;5102618;28;20464;-50
2021/10/03 09:17:31;;;;;;;9.83;6.27;;;18.50;99.90;;;;;;5102939;28;20496;-50
2021/10/03 09:20:09;;;;;;;11.63;8.00;;;18.60;99.90;;;;;;5101910;28;21048;-48
2021/10/03 09:22:55;;;;;;;15.13;7.90;;;18.60;99.90;;;;;;5102870;28;20750;-50
2021/10/03 09:25:37;;;;;;;10.93;7.33;;;18.50;99.90;;;;;;5102579;28;20499;-50
2021/10/03 09:28:05;;;;;;;10.40;7.20;;;18.60;99.90;;;;;;5103063;28;20436;-49
2021/10/03 09:30:32;;;;;;;16.70;7.80;;;18.60;99.90;;;;;;5102335;28;20469;-53
2021/10/03 09:33:03;;;;;;;11.57;7.10;;;18.60;99.90;;;;;;5102050;28;20555;-49
2021/10/03 09:35:32;;;;;;;9.00;7.77;;;18.70;99.90;;;;;;5101966;28;20465;-48
2021/10/03 09:37:59;;;;;;;10.00;7.03;;;18.70;99.90;;;;;;5101754;28;20503;-49
2021/10/03 09:40:27;;;;;;;10.40;6.87;;;18.70;99.90;;;;;;5102812;28;20465;-49
2021/10/03 09:43:02;;;;;;;9.67;7.30;;;18.80;99.90;;;;;;5102616;28;20461;-48
2021/10/03 09:45:29;;;;;;;10.83;7.93;;;18.80;99.90;;;;;;5102559;28;20468;-49
2021/10/03 09:48:03;;;;;;;8.87;6.40;;;18.90;99.90;;;;;;5101911;28;20425;-50
2021/10/03 09:50:32;;;;;;;9.80;6.50;;;19.10;99.90;;;;;;5102109;28;20464;-47
2021/10/03 09:52:59;;;;;;;8.47;6.20;;;19.50;99.90;;;;;;5101971;28;20438;-50
2021/10/03 09:55:26;;;;;;;7.53;6.10;;;19.80;99.90;;;;;;5100749;28;20948;-49
2021/10/03 09:57:54;;;;;;;11.17;8.03;;;19.80;99.90;;;;;;5102128;28;20796;-47
2021/10/03 10:00:23;;;;;;;8.33;6.40;;;19.90;99.90;;;;;;5102375;28;20507;-45
2021/10/03 10:02:50;;;;;;;9.00;7.30;;;20.00;99.90;;;;;;5103049;28;20437;-45
2021/10/03 10:05:21;;;;;;;10.07;7.53;;;20.20;99.90;;;;;;5102174;28;20441;-43
2021/10/03 10:07:48;;;;;;;9.77;6.80;;;20.30;99.90;;;;;;5089738;22;20519;-49
2021/10/03 10:10:15;;;;;;;9.40;7.03;;;20.40;99.90;;;;;;5071852;28;20735;-46
2021/10/03 10:12:56;;;;;;;11.10;6.47;;;20.60;99.90;;;;;;5105714;22;20510;-53
2021/10/03 10:15:24;;;;;;;7.93;7.10;;;20.70;99.90;;;;;;5118926;28;20449;-48
2021/10/03 10:17:52;;;;;;;7.10;6.40;;;20.70;99.90;;;;;;5114681;22;20549;-48
2021/10/03 10:20:37;;;;;;;11.30;6.87;;;20.70;99.90;;;;;;5071249;28;20435;-46
2021/10/03 10:23:07;;;;;;;9.03;7.37;;;20.60;99.90;;;;;;5116108;22;20472;-47
2021/10/03 10:25:45;;;;;;;7.50;6.70;;;20.70;99.90;;;;;;5133522;28;20460;-48
2021/10/03 10:28:14;;;;;;;8.97;7.10;;;20.70;99.90;;;;;;5118903;22;20547;-53
2021/10/03 10:31:08;;;;;;;7.90;6.43;;;20.90;99.90;;;;;;5108542;28;20415;-43
2021/10/03 10:38:42;;;;;;;8.90;6.83;;;21.40;99.90;;;;;;5081807;22;20515;-44
2021/10/03 10:41:33;;;;;;;10.23;7.73;;;21.70;99.90;;;;;;5097432;28;20508;-45
2021/10/03 10:44:00;;;;;;;9.93;7.40;;;21.80;99.90;;;;;;5104822;22;20544;-46
2021/10/03 10:46:49;;;;;;;7.53;6.17;;;21.90;99.90;;;;;;5095358;28;20874;-46
2021/10/03 10:49:37;;;;;;;8.33;5.50;;;21.80;99.90;;;;;;5093236;22;20474;-47
2021/10/03 10:52:40;;;;;;;6.23;5.43;;;22.20;99.90;;;;;;5080845;28;21043;-43
2021/10/03 10:55:31;;;;;;;7.97;7.20;;;22.80;99.90;;;;;;5081005;28;20445;-49
2021/10/03 11:11:23;;;;;;;6.47;5.73;;;23.80;99.90;;;;;;5816453;22;20480;-51
2021/10/03 11:13:51;;;;;;;13.17;7.40;;;23.60;99.90;;;;;;5100196;28;20457;-47
2021/10/03 11:16:22;;;;;;;6.80;5.83;;;23.80;99.90;;;;;;5095827;28;20453;-51
2021/10/03 11:18:51;;;;;;;5.47;4.80;;;24.00;99.90;;;;;;5079605;28;20486;-47
2021/10/03 11:21:19;;;;;;;5.60;5.00;;;24.10;99.90;;;;;;5084002;28;20452;-49
2021/10/03 11:23:47;;;;;;;12.43;9.10;;;24.10;99.90;;;;;;5095543;28;20469;-48
2021/10/03 11:26:14;;;;;;;6.87;6.27;;;24.30;99.90;;;;;;5087126;28;20470;-50
2021/10/03 11:28:54;;;;;;;7.90;5.70;;;24.30;99.90;;;;;;5074892;28;20539;-47
2021/10/03 11:31:38;;;;;;;6.47;5.60;;;24.20;99.90;;;;;;5078147;28;20434;-48
2021/10/03 11:34:06;;;;;;;6.00;5.40;;;24.20;99.90;;;;;;5094459;28;20446;-46
2021/10/03 11:36:33;;;;;;;9.67;6.00;;;24.20;99.90;;;;;;5097930;28;20437;-47
2021/10/03 11:39:00;;;;;;;6.67;5.97;;;24.10;99.90;;;;;;5081444;28;20856;-51
2021/10/03 11:41:27;;;;;;;7.43;6.10;;;24.10;99.90;;;;;;5075801;28;20446;-51
2021/10/03 11:43:55;;;;;;;5.90;5.30;;;24.00;99.90;;;;;;5069789;22;20496;-48
2021/10/03 11:46:22;;;;;;;6.63;6.03;;;23.80;99.90;;;;;;5071601;28;20462;-54
2021/10/03 11:48:51;;;;;;;8.33;6.33;;;23.80;99.90;;;;;;5066259;22;21002;-43
2021/10/03 11:51:18;;;;;;;5.50;4.97;;;23.70;99.90;;;;;;5054684;28;20470;-49
2021/10/03 11:53:47;;;;;;;7.47;5.30;;;23.60;99.80;;;;;;5091208;22;20562;-50
2021/10/03 11:56:15;;;;;;;9.80;5.57;;;23.60;99.60;;;;;;5094955;28;20441;-48
2021/10/03 11:58:43;;;;;;;8.20;5.17;;;23.60;99.80;;;;;;5102248;22;20496;-47
2021/10/03 12:01:12;;;;;;;8.37;6.50;;;23.60;99.40;;;;;;5095240;28;20457;-47
2021/10/03 12:03:47;;;;;;;6.90;5.10;;;23.50;99.40;;;;;;5102192;22;20547;-50
2021/10/03 12:06:19;;;;;;;10.67;5.47;;;23.40;99.10;;;;;;5094848;28;20486;-46
2021/10/03 12:08:47;;;;;;;7.07;6.13;;;23.30;99.30;;;;;;5093927;22;20493;-45
2021/10/03 12:11:15;;;;;;;5.80;5.20;;;23.30;99.60;;;;;;5074478;28;20513;-52
2021/10/03 12:13:41;;;;;;;8.23;5.87;;;23.30;99.60;;;;;;5088843;22;20485;-46
2021/10/03 12:16:17;;;;;;;9.70;6.23;;;23.20;99.20;;;;;;5094721;28;20529;-44
2021/10/03 12:18:47;;;;;;;7.70;6.10;;;23.40;99.10;;;;;;5102171;22;20489;-47
2021/10/03 12:21:17;;;;;;;6.97;5.17;;;23.40;99.20;;;;;;5094617;28;20422;-50
2021/10/03 12:23:56;;;;;;;5.83;5.23;;;23.40;99.30;;;;;;5099215;22;20470;-49
2021/10/03 12:26:29;;;;;;;7.80;6.40;;;23.50;99.50;;;;;;5074437;28;20457;-50
2021/10/03 12:29:13;;;;;;;9.63;7.60;;;23.60;99.60;;;;;;5086260;22;20489;-45
2021/10/03 12:31:44;;;;;;;11.67;8.90;;;23.70;98.90;;;;;;5094251;28;20878;-47
2021/10/03 12:34:29;;;;;;;14.37;9.90;;;23.80;99.00;;;;;;5102191;22;20542;-46
2021/10/03 12:37:01;;;;;;;8.73;6.63;;;23.90;98.90;;;;;;5093839;28;20900;-45
2021/10/03 12:39:30;;;;;;;8.53;6.07;;;23.90;98.20;;;;;;5102249;22;20485;-46
2021/10/03 12:41:58;;;;;;;8.43;6.63;;;23.80;98.20;;;;;;5094425;28;20495;-51
2021/10/03 12:44:26;;;;;;;10.80;6.57;;;23.80;98.40;;;;;;5102258;22;20482;-46
2021/10/03 12:46:55;;;;;;;6.70;5.57;;;24.00;98.30;;;;;;5094330;28;20465;-52
2021/10/03 12:49:23;;;;;;;7.63;5.13;;;24.00;97.20;;;;;;5094356;22;20516;-46
2021/10/03 12:51:50;;;;;;;6.87;5.97;;;23.90;96.80;;;;;;5093977;28;20473;-53
2021/10/03 12:54:17;;;;;;;7.50;6.43;;;23.80;96.60;;;;;;5094375;28;20433;-48
2021/10/03 12:56:44;;;;;;;6.60;5.47;;;23.70;97.20;;;;;;5102241;22;20478;-49
2021/10/03 12:59:10;;;;;;;6.90;5.67;;;23.80;97.40;;;;;;5094490;28;20541;-49
2021/10/03 13:01:37;;;;;;;7.30;5.53;;;23.80;97.20;;;;;;5101802;22;20822;-45
2021/10/03 13:04:05;;;;;;;9.77;5.80;;;23.60;97.20;;;;;;5094089;28;20470;-49
2021/10/03 13:06:32;;;;;;;10.30;6.63;;;23.60;97.40;;;;;;5093981;28;20763;-48
2021/10/03 13:08:59;;;;;;;9.23;6.27;;;23.50;97.80;;;;;;5093907;28;20998;-46
2021/10/03 13:11:25;;;;;;;7.57;5.13;;;23.60;98.10;;;;;;5094239;28;20494;-46
2021/10/03 13:13:52;;;;;;;9.37;6.27;;;23.60;98.10;;;;;;5094113;28;20508;-50
2021/10/03 13:16:19;;;;;;;11.23;5.53;;;23.50;98.10;;;;;;5094102;28;20452;-50